Time;durP1;ratioP1;P1;durP2;ratioP2;P2;SDS_P1;SDS_P2;PMS_P1;PMS_P2;Temp;Humidity;BMP_temperature;BMP_pressure;BME280_temperature;BME280_humidity;BME280_pressure;Samples;Min_cycle;Max_cycle;Signal;HPM_P1;HPM_P2
2022/06/17 00:01:41;;;;;;;3.53;2.58;;;;;;;;;;5053260;28;20389;-91
2022/06/17 00:04:07;;;;;;;2.90;2.30;;;;;;;;;;5054372;28;20447;-90
2022/06/17 00:06:39;;;;;;;3.83;2.50;;;;;;;;;;5055056;28;20384;-90
2022/06/17 00:09:07;;;;;;;2.90;2.63;;;;;;;;;;5055699;28;20381;-89
2022/06/17 00:11:35;;;;;;;2.90;2.60;;;;;;;;;;5056646;28;20388;-89
2022/06/17 00:14:01;;;;;;;2.53;2.33;;;;;;;;;;5054289;28;20405;-90
2022/06/17 00:16:28;;;;;;;2.85;2.40;;;;;;;;;;5055661;28;20382;-90
2022/06/17 00:18:54;;;;;;;2.85;2.40;;;;;;;;;;5032208;28;20391;-89
2022/06/17 00:21:23;;;;;;;3.33;2.40;;;;;;;;;;5046084;28;20391;-90
2022/06/17 00:23:49;;;;;;;2.38;2.20;;;;;;;;;;5042357;28;20381;-90
2022/06/17 00:26:15;;;;;;;2.80;2.45;;;;;;;;;;5052069;28;20424;-89
2022/06/17 00:28:41;;;;;;;4.05;2.78;;;;;;;;;;5041870;28;20885;-90
2022/06/17 00:31:07;;;;;;;2.72;2.45;;;;;;;;;;5045916;28;20420;-89
2022/06/17 00:33:33;;;;;;;3.40;2.20;;;;;;;;;;5037559;28;20408;-89
2022/06/17 00:35:59;;;;;;;3.70;2.60;;;;;;;;;;5045559;28;20377;-89
2022/06/17 00:38:27;;;;;;;2.90;2.70;;;;;;;;;;5052727;28;20376;-90
2022/06/17 00:40:53;;;;;;;3.90;2.88;;;;;;;;;;5056865;28;20400;-89
2022/06/17 00:43:30;;;;;;;2.95;2.65;;;;;;;;;;5043046;28;20470;-90
2022/06/17 00:46:02;;;;;;;3.45;2.80;;;;;;;;;;5057413;28;20468;-90
2022/06/17 00:48:30;;;;;;;3.30;2.70;;;;;;;;;;5055660;28;20393;-90
2022/06/17 00:51:03;;;;;;;3.23;2.83;;;;;;;;;;5055700;28;20468;-89
2022/06/17 00:53:34;;;;;;;3.45;2.53;;;;;;;;;;5055330;28;20451;-90
2022/06/17 00:56:08;;;;;;;3.40;2.88;;;;;;;;;;5056614;28;20377;-89
2022/06/17 00:58:53;;;;;;;3.33;2.40;;;;;;;;;;5056506;28;20384;-90
2022/06/17 01:01:19;;;;;;;3.40;2.58;;;;;;;;;;5055493;28;20405;-90
2022/06/17 01:03:49;;;;;;;3.10;2.80;;;;;;;;;;5056829;28;20404;-90
2022/06/17 01:06:18;;;;;;;4.57;2.70;;;;;;;;;;5056780;28;20408;-89
2022/06/17 01:12:00;;;;;;;3.03;2.73;;;;;;;;;;5056200;28;20905;-90
2022/06/17 01:14:27;;;;;;;3.38;2.42;;;;;;;;;;5056458;28;20405;-90
2022/06/17 01:16:54;;;;;;;4.95;3.00;;;;;;;;;;5056646;28;20374;-90
2022/06/17 01:19:20;;;;;;;3.05;2.80;;;;;;;;;;5055606;28;20485;-90
2022/06/17 01:21:52;;;;;;;2.90;2.53;;;;;;;;;;5055232;28;20468;-90
2022/06/17 01:24:18;;;;;;;3.60;2.70;;;;;;;;;;5056662;28;20374;-90
2022/06/17 01:26:44;;;;;;;2.95;2.72;;;;;;;;;;5056516;28;20389;-89
2022/06/17 01:29:13;;;;;;;3.20;2.90;;;;;;;;;;5055805;28;20440;-90
2022/06/17 01:31:40;;;;;;;3.30;2.92;;;;;;;;;;5056433;28;20397;-90
2022/06/17 01:34:07;;;;;;;2.97;2.70;;;;;;;;;;5056333;28;20894;-90
2022/06/17 01:36:33;;;;;;;3.33;3.03;;;;;;;;;;5045970;28;20380;-90
2022/06/17 01:39:00;;;;;;;3.30;3.00;;;;;;;;;;5036379;28;20375;-90
2022/06/17 01:41:28;;;;;;;3.00;2.80;;;;;;;;;;5051279;28;20401;-90
2022/06/17 01:43:59;;;;;;;2.97;2.75;;;;;;;;;;5054630;28;20435;-90
2022/06/17 01:46:38;;;;;;;3.08;2.78;;;;;;;;;;5046508;28;20450;-90
2022/06/17 01:49:06;;;;;;;3.33;2.90;;;;;;;;;;5019870;28;20377;-90
2022/06/17 01:51:34;;;;;;;3.83;2.90;;;;;;;;;;5034420;28;20759;-90
2022/06/17 01:54:02;;;;;;;3.20;2.90;;;;;;;;;;5043044;28;20939;-89
2022/06/17 01:56:34;;;;;;;3.40;2.78;;;;;;;;;;5033988;28;20423;-90
2022/06/17 01:59:03;;;;;;;3.22;2.92;;;;;;;;;;5051163;28;20427;-90
2022/06/17 02:01:30;;;;;;;2.92;2.63;;;;;;;;;;5055779;28;20931;-90
2022/06/17 02:04:08;;;;;;;4.90;2.80;;;;;;;;;;5055130;28;20401;-89
2022/06/17 02:06:39;;;;;;;3.25;2.88;;;;;;;;;;5055282;28;20385;-90
2022/06/17 02:09:05;;;;;;;5.15;3.15;;;;;;;;;;5055519;28;20373;-90
2022/06/17 02:11:32;;;;;;;2.97;2.67;;;;;;;;;;5048703;28;20433;-90
2022/06/17 02:14:00;;;;;;;3.00;2.70;;;;;;;;;;5046955;28;20420;-90
2022/06/17 02:16:26;;;;;;;3.13;2.83;;;;;;;;;;5055428;28;20378;-90
2022/06/17 02:18:54;;;;;;;3.00;2.65;;;;;;;;;;5055380;28;20386;-89
2022/06/17 02:21:26;;;;;;;5.10;2.97;;;;;;;;;;5054105;28;20747;-90
2022/06/17 02:23:52;;;;;;;3.40;2.67;;;;;;;;;;5034533;28;20876;-89
2022/06/17 02:26:18;;;;;;;3.58;2.83;;;;;;;;;;5033948;28;20438;-89
2022/06/17 02:28:46;;;;;;;4.32;2.80;;;;;;;;;;5027039;28;20408;-89
2022/06/17 02:31:14;;;;;;;3.50;3.00;;;;;;;;;;5042920;28;20385;-89
2022/06/17 02:33:41;;;;;;;3.13;2.88;;;;;;;;;;5053824;28;20408;-88
2022/06/17 02:36:07;;;;;;;3.45;3.00;;;;;;;;;;5046362;28;20413;-90
2022/06/17 02:38:34;;;;;;;3.00;2.70;;;;;;;;;;5053899;28;20378;-89
2022/06/17 02:41:06;;;;;;;3.00;2.80;;;;;;;;;;5053080;28;20382;-89
2022/06/17 02:43:39;;;;;;;3.47;3.03;;;;;;;;;;5054166;28;20400;-90
2022/06/17 02:46:06;;;;;;;3.63;3.33;;;;;;;;;;5054573;28;20381;-89
2022/06/17 02:48:36;;;;;;;3.63;2.95;;;;;;;;;;5054568;28;20472;-90
2022/06/17 02:51:02;;;;;;;3.20;2.70;;;;;;;;;;5054192;28;20382;-90
2022/06/17 02:53:33;;;;;;;3.40;2.83;;;;;;;;;;5054460;28;20416;-90
2022/06/17 02:56:00;;;;;;;2.80;2.60;;;;;;;;;;5040336;28;20386;-90
2022/06/17 02:58:42;;;;;;;2.80;2.60;;;;;;;;;;5054118;28;20373;-90
2022/06/17 03:01:15;;;;;;;3.10;2.70;;;;;;;;;;5055277;28;20465;-90
2022/06/17 03:03:41;;;;;;;2.90;2.70;;;;;;;;;;5053400;28;20389;-90
2022/06/17 03:06:12;;;;;;;2.80;2.60;;;;;;;;;;5053494;28;21008;-90
2022/06/17 03:08:39;;;;;;;2.60;2.40;;;;;;;;;;5054963;28;20378;-90
2022/06/17 03:11:07;;;;;;;3.25;2.50;;;;;;;;;;5054324;28;20385;-89
2022/06/17 03:13:41;;;;;;;3.20;2.60;;;;;;;;;;5054135;28;20771;-89
2022/06/17 03:16:09;;;;;;;2.70;2.40;;;;;;;;;;5040499;28;20395;-90
2022/06/17 03:18:36;;;;;;;3.88;2.70;;;;;;;;;;5055218;28;20512;-89
2022/06/17 03:21:02;;;;;;;2.75;2.53;;;;;;;;;;5055158;28;20448;-89
2022/06/17 03:23:38;;;;;;;3.42;2.50;;;;;;;;;;5054142;28;20883;-89
2022/06/17 03:26:07;;;;;;;2.80;2.50;;;;;;;;;;5055241;28;20385;-89
2022/06/17 03:28:36;;;;;;;4.15;2.72;;;;;;;;;;5045950;28;20458;-89
2022/06/17 03:31:04;;;;;;;2.75;2.55;;;;;;;;;;5032469;28;20785;-89
2022/06/17 03:33:35;;;;;;;2.90;2.70;;;;;;;;;;5054773;28;20401;-90
2022/06/17 03:36:04;;;;;;;2.93;2.53;;;;;;;;;;5048015;28;20872;-89
2022/06/17 03:38:37;;;;;;;2.80;2.60;;;;;;;;;;5053362;28;20403;-90
2022/06/17 03:41:17;;;;;;;3.85;2.70;;;;;;;;;;5055186;28;20862;-90
2022/06/17 03:43:45;;;;;;;3.50;2.78;;;;;;;;;;5047260;28;20406;-90
2022/06/17 03:46:11;;;;;;;2.80;2.55;;;;;;;;;;5045374;28;20393;-90
2022/06/17 03:48:37;;;;;;;3.08;2.78;;;;;;;;;;5047697;28;20468;-89
2022/06/17 03:51:04;;;;;;;4.95;4.10;;;;;;;;;;5034895;28;20430;-90
2022/06/17 03:53:34;;;;;;;3.15;2.78;;;;;;;;;;5034352;28;20398;-89
2022/06/17 03:56:08;;;;;;;3.90;2.58;;;;;;;;;;5052608;28;20381;-90
2022/06/17 03:58:34;;;;;;;2.70;2.50;;;;;;;;;;5042306;28;20430;-89
2022/06/17 04:01:02;;;;;;;2.70;2.50;;;;;;;;;;5045368;28;20533;-89
2022/06/17 04:03:32;;;;;;;3.20;2.38;;;;;;;;;;5045018;28;20878;-90
2022/06/17 04:05:59;;;;;;;3.63;2.03;;;;;;;;;;5039350;28;20431;-91
2022/06/17 04:08:25;;;;;;;2.13;1.92;;;;;;;;;;5054344;28;20377;-91
2022/06/17 04:10:51;;;;;;;2.13;2.00;;;;;;;;;;5054867;28;20484;-89
2022/06/17 04:13:20;;;;;;;2.40;2.17;;;;;;;;;;5053141;28;20397;-90
2022/06/17 04:15:54;;;;;;;2.30;2.10;;;;;;;;;;5058914;28;20381;-90
2022/06/17 04:18:20;;;;;;;2.37;2.17;;;;;;;;;;5046062;28;20427;-91
2022/06/17 04:20:56;;;;;;;2.33;2.08;;;;;;;;;;5030165;28;20379;-89
2022/06/17 04:23:24;;;;;;;2.42;1.95;;;;;;;;;;5029628;28;20377;-89
2022/06/17 04:26:08;;;;;;;2.88;2.33;;;;;;;;;;5057261;28;20385;-91
2022/06/17 04:28:36;;;;;;;2.00;1.90;;;;;;;;;;5028953;28;20405;-91
2022/06/17 04:31:06;;;;;;;2.75;1.85;;;;;;;;;;5028223;28;20434;-91
2022/06/17 04:33:36;;;;;;;3.05;2.20;;;;;;;;;;5039130;28;20375;-91
2022/06/17 04:36:04;;;;;;;2.50;2.08;;;;;;;;;;5042209;28;20399;-91
2022/06/17 04:38:33;;;;;;;3.15;2.13;;;;;;;;;;5055797;28;20401;-90
2022/06/17 04:41:01;;;;;;;2.85;1.92;;;;;;;;;;5056161;28;20385;-90
2022/06/17 04:43:32;;;;;;;2.10;1.90;;;;;;;;;;5057053;28;20378;-89
2022/06/17 04:46:10;;;;;;;3.38;2.30;;;;;;;;;;5056706;28;20381;-89
2022/06/17 04:48:36;;;;;;;2.10;1.90;;;;;;;;;;5053465;28;20449;-91
2022/06/17 04:51:03;;;;;;;3.45;2.08;;;;;;;;;;5029180;28;20453;-91
2022/06/17 04:53:31;;;;;;;2.80;1.80;;;;;;;;;;5043735;28;20379;-90
2022/06/17 04:55:57;;;;;;;1.98;1.85;;;;;;;;;;5055548;28;20386;-90
2022/06/17 04:58:24;;;;;;;2.17;1.98;;;;;;;;;;5057202;28;20377;-90
2022/06/17 05:00:54;;;;;;;3.22;2.00;;;;;;;;;;5052692;28;20391;-90
2022/06/17 05:03:20;;;;;;;2.05;1.83;;;;;;;;;;5034444;28;20765;-89
2022/06/17 05:05:47;;;;;;;2.50;2.08;;;;;;;;;;5034406;28;20458;-90
2022/06/17 05:08:20;;;;;;;2.65;2.00;;;;;;;;;;5035733;28;20386;-90
2022/06/17 05:10:48;;;;;;;2.60;1.80;;;;;;;;;;5026402;28;20388;-90
2022/06/17 05:13:20;;;;;;;3.88;2.10;;;;;;;;;;5038482;28;20383;-90
2022/06/17 05:15:46;;;;;;;2.20;1.85;;;;;;;;;;5040685;28;20472;-91
2022/06/17 05:18:12;;;;;;;3.97;2.10;;;;;;;;;;5055253;28;20851;-91
2022/06/17 05:20:38;;;;;;;2.58;2.33;;;;;;;;;;5047104;28;20477;-87
2022/06/17 05:23:05;;;;;;;2.35;2.00;;;;;;;;;;5053094;28;20374;-88
2022/06/17 05:25:33;;;;;;;2.83;1.73;;;;;;;;;;5054139;28;20404;-91
2022/06/17 05:27:59;;;;;;;2.80;1.80;;;;;;;;;;5050835;28;20399;-89
2022/06/17 05:30:27;;;;;;;2.20;1.70;;;;;;;;;;5055300;28;20382;-89
2022/06/17 05:32:54;;;;;;;2.05;1.30;;;;;;;;;;5046982;28;20860;-90
2022/06/17 05:35:20;;;;;;;1.85;1.60;;;;;;;;;;5040432;28;20408;-90
2022/06/17 05:37:47;;;;;;;3.35;1.92;;;;;;;;;;5047431;28;20507;-90
2022/06/17 05:40:13;;;;;;;1.73;1.58;;;;;;;;;;5056362;28;20374;-90
2022/06/17 05:42:40;;;;;;;2.00;1.50;;;;;;;;;;5032133;28;20400;-91
2022/06/17 05:45:06;;;;;;;2.30;1.70;;;;;;;;;;5038523;28;20862;-91
2022/06/17 05:47:32;;;;;;;2.28;1.85;;;;;;;;;;5045493;28;20863;-90
2022/06/17 05:49:58;;;;;;;2.10;1.70;;;;;;;;;;5055845;28;20385;-90
2022/06/17 05:52:24;;;;;;;1.88;1.67;;;;;;;;;;5051723;28;20392;-91
2022/06/17 05:54:50;;;;;;;2.38;1.95;;;;;;;;;;5045562;28;20760;-91
2022/06/17 05:57:16;;;;;;;3.13;1.70;;;;;;;;;;5034667;28;20394;-91
2022/06/17 05:59:42;;;;;;;2.30;1.73;;;;;;;;;;5043144;28;20409;-90
2022/06/17 06:02:11;;;;;;;1.92;1.60;;;;;;;;;;5042725;28;20820;-90
2022/06/17 06:04:37;;;;;;;2.53;1.75;;;;;;;;;;5043698;28;20385;-91
2022/06/17 06:07:03;;;;;;;2.77;1.90;;;;;;;;;;5044626;28;20407;-89
2022/06/17 06:09:29;;;;;;;1.92;1.52;;;;;;;;;;5043168;28;20884;-90
2022/06/17 06:11:55;;;;;;;2.17;1.60;;;;;;;;;;5034361;28;20482;-90
2022/06/17 06:14:21;;;;;;;1.92;1.83;;;;;;;;;;5051013;28;20488;-91
2022/06/17 06:16:47;;;;;;;2.42;1.40;;;;;;;;;;5055597;28;20786;-89
2022/06/17 06:19:13;;;;;;;3.22;1.58;;;;;;;;;;5037839;28;20386;-89
2022/06/17 06:21:39;;;;;;;2.05;1.85;;;;;;;;;;5027640;28;20397;-89
2022/06/17 06:24:05;;;;;;;3.58;1.80;;;;;;;;;;5044089;28;20864;-90
2022/06/17 06:26:31;;;;;;;2.00;1.43;;;;;;;;;;5039214;28;20389;-89
2022/06/17 06:28:59;;;;;;;2.88;1.58;;;;;;;;;;5054801;28;20389;-89
2022/06/17 06:31:30;;;;;;;2.00;1.43;;;;;;;;;;5052146;28;20377;-89
2022/06/17 06:33:56;;;;;;;2.42;1.60;;;;;;;;;;5043643;28;20416;-88
2022/06/17 06:36:22;;;;;;;1.83;1.55;;;;;;;;;;5044402;28;20384;-88
2022/06/17 06:38:48;;;;;;;2.55;1.60;;;;;;;;;;5053756;28;20451;-89
2022/06/17 06:41:17;;;;;;;3.42;1.95;;;;;;;;;;5040574;28;20927;-89
2022/06/17 06:43:43;;;;;;;2.67;1.65;;;;;;;;;;5040106;28;20431;-90
2022/06/17 06:46:11;;;;;;;3.05;1.70;;;;;;;;;;5043205;28;20963;-89
2022/06/17 06:48:37;;;;;;;2.00;1.60;;;;;;;;;;5050972;28;20381;-90
2022/06/17 06:51:03;;;;;;;2.60;1.60;;;;;;;;;;5043776;28;20479;-90
2022/06/17 06:53:29;;;;;;;2.05;1.60;;;;;;;;;;5018022;28;20602;-90
2022/06/17 06:55:56;;;;;;;2.17;1.80;;;;;;;;;;5017368;28;20890;-89
2022/06/17 06:58:23;;;;;;;1.67;1.58;;;;;;;;;;5017594;28;20381;-90
2022/06/17 07:00:51;;;;;;;2.40;1.60;;;;;;;;;;5042476;28;20404;-90
2022/06/17 07:03:18;;;;;;;2.38;1.70;;;;;;;;;;5054659;28;20413;-91
2022/06/17 07:05:49;;;;;;;3.67;1.83;;;;;;;;;;5026860;28;20395;-91
2022/06/17 07:08:16;;;;;;;2.13;1.77;;;;;;;;;;5029881;28;20854;-91
2022/06/17 07:10:43;;;;;;;1.67;1.58;;;;;;;;;;5032575;28;20468;-90
2022/06/17 07:13:09;;;;;;;1.58;1.48;;;;;;;;;;5038896;28;20394;-90
2022/06/17 07:15:36;;;;;;;1.95;1.70;;;;;;;;;;5044907;28;20901;-90
2022/06/17 07:18:04;;;;;;;1.50;1.40;;;;;;;;;;5045969;28;20392;-89
2022/06/17 07:20:36;;;;;;;1.50;1.40;;;;;;;;;;5059043;28;20377;-88
2022/06/17 07:23:04;;;;;;;3.03;1.80;;;;;;;;;;5041207;28;20393;-89
2022/06/17 07:25:30;;;;;;;4.55;1.55;;;;;;;;;;5043335;28;20385;-89
2022/06/17 07:27:56;;;;;;;2.20;1.50;;;;;;;;;;5053773;28;20389;-90
2022/06/17 07:30:22;;;;;;;2.92;1.85;;;;;;;;;;5026131;28;20881;-89
2022/06/17 07:32:48;;;;;;;2.42;1.60;;;;;;;;;;5047794;28;20377;-90
2022/06/17 07:35:15;;;;;;;2.60;1.70;;;;;;;;;;5041281;28;20429;-90
2022/06/17 07:40:27;;;;;;;2.50;1.63;;;;;;;;;;5042799;28;20376;-90
2022/06/17 07:42:53;;;;;;;1.52;1.40;;;;;;;;;;5032496;28;20391;-90
2022/06/17 07:45:20;;;;;;;1.90;1.70;;;;;;;;;;5029002;28;20862;-91
2022/06/17 07:47:48;;;;;;;2.38;1.50;;;;;;;;;;5050929;28;20452;-90
2022/06/17 07:50:15;;;;;;;3.03;1.65;;;;;;;;;;5057517;28;20377;-89
2022/06/17 07:52:41;;;;;;;1.60;1.50;;;;;;;;;;5052139;28;20389;-90
2022/06/17 07:55:08;;;;;;;2.50;1.92;;;;;;;;;;5029099;28;20408;-89
2022/06/17 07:57:34;;;;;;;1.83;1.73;;;;;;;;;;5042498;28;20858;-91
2022/06/17 08:00:00;;;;;;;2.85;1.80;;;;;;;;;;5060753;28;20395;-89
2022/06/17 08:02:26;;;;;;;2.30;1.67;;;;;;;;;;5039795;28;20857;-90
2022/06/17 08:04:52;;;;;;;2.05;1.70;;;;;;;;;;5039256;28;20383;-91
2022/06/17 08:07:18;;;;;;;2.55;1.63;;;;;;;;;;5038713;28;20415;-92
2022/06/17 08:09:45;;;;;;;1.75;1.60;;;;;;;;;;5031727;28;20496;-90
2022/06/17 08:12:13;;;;;;;1.92;1.40;;;;;;;;;;5034100;28;20428;-91
2022/06/17 08:14:43;;;;;;;4.53;1.80;;;;;;;;;;5056932;28;20409;-91
2022/06/17 08:17:10;;;;;;;2.58;1.70;;;;;;;;;;5043911;28;20440;-91
2022/06/17 08:19:36;;;;;;;3.90;1.77;;;;;;;;;;5046603;28;20755;-90
2022/06/17 08:22:02;;;;;;;2.90;1.90;;;;;;;;;;5053969;28;20383;-91
2022/06/17 08:24:29;;;;;;;2.40;1.83;;;;;;;;;;5034869;28;20447;-89
2022/06/17 08:26:55;;;;;;;5.25;2.20;;;;;;;;;;5057496;28;20389;-90
2022/06/17 08:29:22;;;;;;;2.85;1.73;;;;;;;;;;5040602;28;20381;-91
2022/06/17 08:31:48;;;;;;;3.88;1.77;;;;;;;;;;5046645;28;20393;-89
2022/06/17 08:34:14;;;;;;;2.40;2.03;;;;;;;;;;5044857;28;20434;-88
2022/06/17 08:36:40;;;;;;;2.17;1.70;;;;;;;;;;5046063;28;20409;-93
2022/06/17 08:39:08;;;;;;;4.72;2.00;;;;;;;;;;5044922;28;20381;-91
2022/06/17 08:41:35;;;;;;;3.73;2.10;;;;;;;;;;5037045;28;20875;-91
2022/06/17 08:44:01;;;;;;;3.65;1.52;;;;;;;;;;5038818;28;20450;-90
2022/06/17 08:46:33;;;;;;;3.95;1.73;;;;;;;;;;5036495;28;20398;-90
2022/06/17 08:48:59;;;;;;;3.17;1.63;;;;;;;;;;5043047;28;20458;-92
2022/06/17 08:51:28;;;;;;;4.50;1.70;;;;;;;;;;5037529;28;20391;-92
2022/06/17 08:54:06;;;;;;;3.55;1.45;;;;;;;;;;5036049;28;20448;-90
2022/06/17 08:56:32;;;;;;;3.03;1.42;;;;;;;;;;5028429;28;20383;-89
2022/06/17 08:59:13;;;;;;;3.25;1.50;;;;;;;;;;5033319;28;20398;-88
2022/06/17 09:01:58;;;;;;;3.00;1.52;;;;;;;;;;5044455;28;20751;-90
2022/06/17 09:04:27;;;;;;;2.08;1.60;;;;;;;;;;5043864;28;20391;-91
2022/06/17 09:07:12;;;;;;;2.53;1.50;;;;;;;;;;5040984;28;20477;-90
2022/06/17 09:09:56;;;;;;;2.77;1.53;;;;;;;;;;5041842;28;20939;-89
2022/06/17 09:12:28;;;;;;;2.47;1.60;;;;;;;;;;5033001;28;20422;-90
2022/06/17 09:14:54;;;;;;;2.30;1.60;;;;;;;;;;5042016;28;20817;-89
2022/06/17 09:17:27;;;;;;;2.05;1.77;;;;;;;;;;5045012;28;20391;-89
2022/06/17 09:19:58;;;;;;;1.75;1.48;;;;;;;;;;5036323;28;20390;-90
2022/06/17 09:22:28;;;;;;;2.53;1.60;;;;;;;;;;5028696;28;20478;-88
2022/06/17 09:24:56;;;;;;;3.75;1.60;;;;;;;;;;5023547;28;20396;-89
2022/06/17 09:27:27;;;;;;;3.37;1.40;;;;;;;;;;5032548;28;20418;-90
2022/06/17 09:29:53;;;;;;;3.97;1.77;;;;;;;;;;5037904;28;20419;-92
2022/06/17 09:32:42;;;;;;;3.33;1.60;;;;;;;;;;5034765;28;20399;-91
2022/06/17 09:35:13;;;;;;;1.70;1.60;;;;;;;;;;5032632;28;20410;-89
2022/06/17 09:37:45;;;;;;;2.38;1.70;;;;;;;;;;5042507;28;20403;-89
2022/06/17 09:40:31;;;;;;;4.03;1.83;;;;;;;;;;5024675;28;20388;-89
2022/06/17 09:43:02;;;;;;;2.17;1.85;;;;;;;;;;5022979;28;20389;-89
2022/06/17 09:45:28;;;;;;;2.45;1.80;;;;;;;;;;5042978;28;20381;-91
2022/06/17 09:48:00;;;;;;;7.75;1.95;;;;;;;;;;5031740;28;20401;-91
2022/06/17 09:50:32;;;;;;;2.97;2.00;;;;;;;;;;5054153;28;20480;-91
2022/06/17 09:53:19;;;;;;;4.28;1.83;;;;;;;;;;5047079;28;20755;-88
2022/06/17 09:55:52;;;;;;;2.40;1.70;;;;;;;;;;5037798;28;20423;-85
2022/06/17 09:58:25;;;;;;;2.97;1.90;;;;;;;;;;5035277;28;20733;-85
2022/06/17 10:00:55;;;;;;;2.05;1.60;;;;;;;;;;5037024;28;20417;-85
2022/06/17 10:03:21;;;;;;;3.70;1.80;;;;;;;;;;5031893;28;20396;-87
2022/06/17 10:05:53;;;;;;;1.80;1.52;;;;;;;;;;5024089;28;20446;-87
2022/06/17 10:08:25;;;;;;;4.10;1.70;;;;;;;;;;5031272;28;20405;-85
2022/06/17 10:11:01;;;;;;;2.28;1.52;;;;;;;;;;5028119;28;20402;-86
2022/06/17 10:13:34;;;;;;;3.22;1.55;;;;;;;;;;5041309;28;20401;-88
2022/06/17 10:19:20;;;;;;;3.55;1.75;;;;;;;;;;5025238;28;20513;-87
2022/06/17 10:22:05;;;;;;;2.60;1.65;;;;;;;;;;4994584;28;20399;-86
2022/06/17 10:24:31;;;;;;;2.10;1.60;;;;;;;;;;5029719;28;20406;-87
2022/06/17 10:26:57;;;;;;;4.68;2.67;;;;;;;;;;5034754;28;20474;-87
2022/06/17 10:29:46;;;;;;;6.00;1.90;;;;;;;;;;5025437;28;20393;-89
2022/06/17 10:32:12;;;;;;;2.97;1.80;;;;;;;;;;5009622;28;20447;-88
2022/06/17 10:35:04;;;;;;;2.80;1.83;;;;;;;;;;5046744;28;20405;-87
2022/06/17 10:37:32;;;;;;;2.60;1.50;;;;;;;;;;5044677;28;20524;-87
2022/06/17 10:39:59;;;;;;;1.92;1.58;;;;;;;;;;5041647;28;20480;-86
2022/06/17 10:42:26;;;;;;;2.05;1.70;;;;;;;;;;5040606;28;20431;-87
2022/06/17 10:44:54;;;;;;;2.80;1.73;;;;;;;;;;5022263;28;20397;-88
2022/06/17 10:47:43;;;;;;;3.45;1.70;;;;;;;;;;5026773;28;20395;-88
2022/06/17 10:50:18;;;;;;;4.15;1.92;;;;;;;;;;5035993;28;20513;-87
2022/06/17 10:53:07;;;;;;;3.20;1.63;;;;;;;;;;5019779;28;20456;-86
2022/06/17 10:55:54;;;;;;;4.38;1.80;;;;;;;;;;5033222;28;20450;-89
2022/06/17 10:58:21;;;;;;;3.92;1.70;;;;;;;;;;5033656;28;20389;-88
2022/06/17 11:00:57;;;;;;;2.70;1.52;;;;;;;;;;5040780;28;20391;-87
2022/06/17 11:03:25;;;;;;;2.25;1.42;;;;;;;;;;5031144;28;20425;-88
2022/06/17 11:05:56;;;;;;;2.40;1.40;;;;;;;;;;5035815;28;20398;-88
2022/06/17 11:08:24;;;;;;;2.45;1.50;;;;;;;;;;5025248;28;20886;-86
2022/06/17 11:10:52;;;;;;;2.50;1.50;;;;;;;;;;5032646;28;20398;-83
2022/06/17 11:13:19;;;;;;;2.60;1.60;;;;;;;;;;5033933;28;20488;-86
2022/06/17 11:15:48;;;;;;;2.13;1.20;;;;;;;;;;5037907;28;20460;-87
2022/06/17 11:18:15;;;;;;;2.10;1.40;;;;;;;;;;5039245;28;20394;-87
2022/06/17 11:20:52;;;;;;;2.13;1.50;;;;;;;;;;5050369;28;20420;-86
2022/06/17 11:23:33;;;;;;;2.10;1.40;;;;;;;;;;5032415;28;20549;-88
2022/06/17 11:26:14;;;;;;;4.03;1.40;;;;;;;;;;5039119;28;20395;-87
2022/06/17 11:28:41;;;;;;;3.67;1.97;;;;;;;;;;5034681;28;20404;-86
2022/06/17 11:31:34;;;;;;;2.13;1.50;;;;;;;;;;5033372;28;20398;-87
2022/06/17 11:34:11;;;;;;;1.57;1.27;;;;;;;;;;5021123;28;20458;-84
2022/06/17 11:36:49;;;;;;;2.22;1.25;;;;;;;;;;5035782;28;20473;-88
2022/06/17 11:39:28;;;;;;;2.03;1.30;;;;;;;;;;5042442;28;20386;-87
2022/06/17 11:41:55;;;;;;;1.70;1.20;;;;;;;;;;5032090;28;20395;-86
2022/06/17 11:44:21;;;;;;;3.30;1.20;;;;;;;;;;5032671;28;20402;-89
2022/06/17 11:46:50;;;;;;;1.20;1.10;;;;;;;;;;5032708;28;20426;-86
2022/06/17 11:49:17;;;;;;;2.65;1.85;;;;;;;;;;5018570;28;20442;-88
2022/06/17 11:52:03;;;;;;;1.30;0.90;;;;;;;;;;5031963;28;20442;-89
2022/06/17 11:54:34;;;;;;;2.30;1.20;;;;;;;;;;5033101;28;20447;-85
2022/06/17 11:57:12;;;;;;;2.05;1.40;;;;;;;;;;5035341;28;20423;-89
2022/06/17 11:59:42;;;;;;;2.70;1.30;;;;;;;;;;5027819;28;20384;-88
2022/06/17 12:02:08;;;;;;;2.10;1.50;;;;;;;;;;5019015;28;20479;-87
2022/06/17 12:04:46;;;;;;;1.50;1.40;;;;;;;;;;5023029;28;20530;-91
2022/06/17 12:07:31;;;;;;;1.70;1.30;;;;;;;;;;5030402;28;20476;-88
2022/06/17 12:10:05;;;;;;;2.25;1.20;;;;;;;;;;5032477;28;20394;-87
2022/06/17 12:12:31;;;;;;;2.13;1.10;;;;;;;;;;5020744;28;20407;-88
2022/06/17 12:15:00;;;;;;;2.90;1.50;;;;;;;;;;5044324;28;20453;-88
2022/06/17 12:17:27;;;;;;;2.13;1.40;;;;;;;;;;5045091;28;20385;-89
2022/06/17 12:19:53;;;;;;;2.13;1.30;;;;;;;;;;5041987;28;20461;-89
2022/06/17 12:22:22;;;;;;;2.40;1.20;;;;;;;;;;5043305;28;20422;-89
2022/06/17 12:24:52;;;;;;;1.75;1.20;;;;;;;;;;5046746;28;20448;-87
2022/06/17 12:27:26;;;;;;;2.47;1.08;;;;;;;;;;5025716;28;20371;-87
2022/06/17 12:30:02;;;;;;;1.77;1.08;;;;;;;;;;5050042;28;20427;-89
2022/06/17 12:32:31;;;;;;;1.10;1.00;;;;;;;;;;5052126;28;20421;-88
2022/06/17 12:35:07;;;;;;;1.85;0.88;;;;;;;;;;5054085;28;20452;-90
2022/06/17 12:37:45;;;;;;;2.10;1.10;;;;;;;;;;5043671;28;20391;-87
2022/06/17 12:40:14;;;;;;;1.15;0.82;;;;;;;;;;5032484;28;20391;-87
2022/06/17 12:42:47;;;;;;;2.50;1.00;;;;;;;;;;5035015;28;20497;-90
2022/06/17 12:45:25;;;;;;;1.70;1.00;;;;;;;;;;5033535;28;20881;-88
2022/06/17 12:48:10;;;;;;;2.83;1.00;;;;;;;;;;5037577;28;20876;-88
2022/06/17 12:53:29;;;;;;;2.95;1.00;;;;;;;;;;5034700;28;20377;-89
2022/06/17 12:55:56;;;;;;;1.30;0.90;;;;;;;;;;5038107;28;20409;-88
2022/06/17 12:58:22;;;;;;;1.25;1.15;;;;;;;;;;5034350;28;20383;-88
2022/06/17 13:00:48;;;;;;;2.63;1.00;;;;;;;;;;5037968;28;20454;-88
2022/06/17 13:03:34;;;;;;;3.15;1.33;;;;;;;;;;5034730;28;20458;-89
2022/06/17 13:06:08;;;;;;;1.35;1.10;;;;;;;;;;5052785;28;20389;-88
2022/06/17 13:08:47;;;;;;;1.55;1.15;;;;;;;;;;5056381;28;20381;-89
2022/06/17 13:11:16;;;;;;;1.60;1.10;;;;;;;;;;5054540;28;20390;-89
2022/06/17 13:13:51;;;;;;;1.20;1.05;;;;;;;;;;5054542;28;20924;-87
2022/06/17 13:16:37;;;;;;;1.55;0.98;;;;;;;;;;5055627;28;20381;-88
2022/06/17 13:19:36;;;;;;;1.95;1.10;;;;;;;;;;5054915;28;20377;-88
2022/06/17 13:22:10;;;;;;;3.00;1.35;;;;;;;;;;5043145;28;20417;-90
2022/06/17 13:24:42;;;;;;;2.35;1.20;;;;;;;;;;5036749;28;20754;-88
2022/06/17 13:27:16;;;;;;;1.77;1.20;;;;;;;;;;5046616;28;20855;-88
2022/06/17 13:29:47;;;;;;;1.70;1.15;;;;;;;;;;5055286;28;20464;-88
2022/06/17 13:32:13;;;;;;;2.30;1.00;;;;;;;;;;5055269;28;20413;-88
2022/06/17 13:34:42;;;;;;;2.00;1.10;;;;;;;;;;5055028;28;20444;-88
2022/06/17 13:37:15;;;;;;;1.33;1.10;;;;;;;;;;5040683;28;20393;-90
2022/06/17 13:39:43;;;;;;;1.73;1.20;;;;;;;;;;5052232;28;20378;-90
2022/06/17 13:42:12;;;;;;;1.90;1.20;;;;;;;;;;5041836;28;20381;-90
2022/06/17 13:44:44;;;;;;;1.90;1.27;;;;;;;;;;5037889;28;20386;-89
2022/06/17 13:47:26;;;;;;;1.55;1.30;;;;;;;;;;5041824;28;20894;-89
2022/06/17 13:49:55;;;;;;;2.00;1.38;;;;;;;;;;5038344;28;20390;-89
2022/06/17 13:52:34;;;;;;;1.80;1.30;;;;;;;;;;5047326;28;20379;-89
2022/06/17 13:55:15;;;;;;;2.40;1.27;;;;;;;;;;5037029;28;20417;-90
2022/06/17 13:57:54;;;;;;;2.53;1.33;;;;;;;;;;5052867;28;20478;-89
2022/06/17 14:00:20;;;;;;;2.22;1.73;;;;;;;;;;5036552;28;20386;-91
2022/06/17 14:02:51;;;;;;;2.95;1.42;;;;;;;;;;5036433;28;20379;-90
2022/06/17 14:05:26;;;;;;;1.50;1.40;;;;;;;;;;5031604;28;20872;-89
2022/06/17 14:07:55;;;;;;;1.98;1.30;;;;;;;;;;5033841;28;20377;-89
2022/06/17 14:10:41;;;;;;;2.10;1.30;;;;;;;;;;5023080;28;20381;-90
2022/06/17 14:13:16;;;;;;;2.67;1.30;;;;;;;;;;5041890;28;20400;-90
2022/06/17 14:15:47;;;;;;;2.38;1.33;;;;;;;;;;5048372;28;20934;-90
2022/06/17 14:18:21;;;;;;;2.00;1.40;;;;;;;;;;5039567;28;20401;-91
2022/06/17 14:20:57;;;;;;;2.00;1.50;;;;;;;;;;5054982;28;20867;-90
2022/06/17 14:23:28;;;;;;;1.88;1.30;;;;;;;;;;5055295;28;20413;-90
2022/06/17 14:25:57;;;;;;;1.67;1.25;;;;;;;;;;5053692;28;20746;-91
2022/06/17 14:28:37;;;;;;;2.63;1.55;;;;;;;;;;5049552;28;20918;-90
2022/06/17 14:31:26;;;;;;;2.20;1.38;;;;;;;;;;5047289;28;20882;-91
2022/06/17 14:33:55;;;;;;;3.00;1.48;;;;;;;;;;5038223;28;20832;-91
2022/06/17 14:36:40;;;;;;;2.55;1.60;;;;;;;;;;5049845;28;20393;-90
2022/06/17 14:39:25;;;;;;;1.73;1.30;;;;;;;;;;5054628;28;20377;-90
2022/06/17 14:42:04;;;;;;;2.23;1.50;;;;;;;;;;5049795;28;20810;-91
2022/06/17 14:44:33;;;;;;;2.10;1.45;;;;;;;;;;5045288;28;20392;-90
2022/06/17 14:47:19;;;;;;;2.00;1.40;;;;;;;;;;5054502;28;20801;-90
2022/06/17 14:50:04;;;;;;;2.97;1.50;;;;;;;;;;5034849;28;20394;-89
2022/06/17 14:52:33;;;;;;;2.70;1.38;;;;;;;;;;5037919;28;20396;-91
2022/06/17 14:55:01;;;;;;;2.57;1.43;;;;;;;;;;5054462;28;20397;-88
2022/06/17 14:57:28;;;;;;;2.22;1.60;;;;;;;;;;5049819;28;20867;-89
2022/06/17 15:00:02;;;;;;;2.20;1.30;;;;;;;;;;5042651;28;20427;-90
2022/06/17 15:02:38;;;;;;;4.60;1.45;;;;;;;;;;5042055;28;20383;-89
2022/06/17 15:05:05;;;;;;;1.60;1.35;;;;;;;;;;5043561;28;20389;-89
2022/06/17 15:07:38;;;;;;;1.52;1.25;;;;;;;;;;5038209;28;20884;-88
2022/06/17 15:10:25;;;;;;;1.80;1.42;;;;;;;;;;5053835;28;20436;-88
2022/06/17 15:13:05;;;;;;;2.47;1.58;;;;;;;;;;5039703;28;20880;-89
2022/06/17 15:15:35;;;;;;;1.90;1.50;;;;;;;;;;5047473;28;20443;-88